M I D A S
Marine Information and Data Acquisition System
Tripno 878 of the Zeeleeuw from 2005-04-06 07:09:20 to 2005-04-06 10:59:48
Back to CruiseResearch ActivitiesStationsMapUnderway DataData graphs

EquipmentUnitsComment
TimeDGPSUTC
LatitudeDGPSDM.mWGS84
LongitudeDGPSDM.mWGS84
HeadingGyrodeg 
SOGDGPSknotsSpeed over ground
COGDGPSdegCourse over ground
DepthEcho soundermeters200 kHz
Missing or incorrect values are displayed as -999
Navigation data collected by the RV Zeeleeuw from 2005-04-06 07:07:31 to 2005-04-06 11:13:34
                                                                                    Next 1000 lines
Time Latitude Longitude Heading SOG COG Depth
2005-04-06 07:07:41 51°13.596 2°56.097 114.6 1.3 288 6.4
2005-04-06 07:07:46 51°13.597 2°56.093 115.4 1.5 290 6.3
2005-04-06 07:07:51 51°13.598 2°56.088 116.8 2.3 294 -999
2005-04-06 07:07:57 51°13.6 2°56.081 117.8 2.3 294 -999
2005-04-06 07:08:02 51°13.602 2°56.076 118.6 2.8 296 -999
2005-04-06 07:08:07 51°13.604 2°56.068 119.1 3.1 296 -999
2005-04-06 07:08:12 51°13.607 2°56.06 119.5 3.5 298 -999
2005-04-06 07:08:17 51°13.609 2°56.052 119.6 3.7 297 -999
2005-04-06 07:08:22 51°13.612 2°56.044 119.5 3.9 298 -999
2005-04-06 07:08:27 51°13.614 2°56.037 119.3 3.9 298 -999
2005-04-06 07:08:32 51°13.617 2°56.029 119 4 297 -999
2005-04-06 07:08:37 51°13.619 2°56.021 119 4 297 -999
2005-04-06 07:08:42 51°13.622 2°56.013 119.4 4 297 -999
2005-04-06 07:08:47 51°13.624 2°56.005 120.3 4.2 297 -999
2005-04-06 07:08:52 51°13.627 2°55.997 120.8 4.2 297 -999
2005-04-06 07:08:57 51°13.629 2°55.987 121.4 4.2 297 -999
2005-04-06 07:09:01 51°13.632 2°55.98 121.7 4.5 298 -999
2005-04-06 07:09:07 51°13.635 2°55.971 121.8 4.5 298 -999
2005-04-06 07:09:12 51°13.639 2°55.959 121.8 4.6 299 -999
2005-04-06 07:09:17 51°13.643 2°55.949 121.5 4.6 300 -999
2005-04-06 07:09:22 51°13.646 2°55.941 121 4.6 300 -999
2005-04-06 07:09:27 51°13.65 2°55.932 120.2 4.6 300 -999
2005-04-06 07:09:32 51°13.653 2°55.922 119.1 4.7 298 -999
2005-04-06 07:09:37 51°13.656 2°55.913 118.2 4.8 297 -999
2005-04-06 07:09:41 51°13.658 2°55.906 116.6 4.8 296 -999
2005-04-06 07:09:47 51°13.66 2°55.896 114.3 4.8 296 -999
2005-04-06 07:09:52 51°13.663 2°55.885 112.6 4.8 292 -999
2005-04-06 07:09:57 51°13.665 2°55.875 110.7 4.9 291 -999
2005-04-06 07:10:02 51°13.667 2°55.866 109.2 4.9 289 -999
2005-04-06 07:10:07 51°13.668 2°55.856 107.4 4.9 289 -999
2005-04-06 07:10:12 51°13.67 2°55.844 105.7 5 285 -999
2005-04-06 07:10:17 51°13.672 2°55.835 104 4.9 284 -999
2005-04-06 07:10:23 51°13.673 2°55.823 102.6 4.7 283 -999
2005-04-06 07:10:27 51°13.674 2°55.816 101.3 4.7 283 -999
2005-04-06 07:10:31 51°13.675 2°55.808 100.3 4.1 281 -999
2005-04-06 07:10:37 51°13.675 2°55.798 99.6 4.1 281 -999
2005-04-06 07:10:42 51°13.676 2°55.793 98.4 3.1 280 8.7
2005-04-06 07:10:47 51°13.677 2°55.787 96.7 2.5 280 9.1
2005-04-06 07:10:52 51°13.677 2°55.783 93.8 2.1 282 5.5
2005-04-06 07:10:56 51°13.677 2°55.781 90.9 1.4 279 9.8
2005-04-06 07:11:01 51°13.677 2°55.779 87.2 0.7 296 -999
2005-04-06 07:11:07 51°13.678 2°55.779 82.3 0.4 332 -999
2005-04-06 07:11:12 51°13.679 2°55.78 75.7 0.7 30 -999
2005-04-06 07:11:17 51°13.68 2°55.782 69.6 1 44 10.4
2005-04-06 07:11:21 51°13.682 2°55.784 63.1 1.2 45 -999
2005-04-06 07:11:26 51°13.683 2°55.787 57.9 1.7 45 10.5
2005-04-06 07:11:33 51°13.686 2°55.791 51.5 2.1 44 -999
2005-04-06 07:11:36 51°13.687 2°55.792 45.9 1.8 36 10.6
2005-04-06 07:11:41 51°13.689 2°55.794 42.8 1.5 37 10.4
2005-04-06 07:11:46 51°13.689 2°55.794 40.3 0.8 38 10.4
2005-04-06 07:11:52 51°13.689 2°55.794 37 0.8 38 -999
2005-04-06 07:11:57 51°13.689 2°55.794 35.6 0.3 221 5.4
2005-04-06 07:12:01 51°13.688 2°55.794 34.9 0.3 221 -999
2005-04-06 07:12:07 51°13.688 2°55.794 34.6 0.1 237 10.4
2005-04-06 07:12:11 51°13.689 2°55.794 33.6 0.3 28 10.5
2005-04-06 07:12:17 51°13.691 2°55.796 30.9 1.4 23 -999
2005-04-06 07:12:21 51°13.693 2°55.797 24.5 1.9 20 10.6
2005-04-06 07:12:27 51°13.696 2°55.797 18.9 2 17 10.6
2005-04-06 07:12:32 51°13.699 2°55.798 12.6 1.9 11 -999
2005-04-06 07:12:37 51°13.7 2°55.798 8.6 1.4 13 -999
2005-04-06 07:12:42 51°13.701 2°55.799 5.7 1.4 13 10.9
2005-04-06 07:12:46 51°13.701 2°55.799 3.4 1.4 13 10.9
2005-04-06 07:12:52 51°13.699 2°55.8 1.2 0.3 131 10.8
2005-04-06 07:12:56 51°13.699 2°55.8 359.6 0.8 158 10.7
2005-04-06 07:13:02 51°13.698 2°55.801 358.6 0.7 155 -999
2005-04-06 07:13:07 51°13.698 2°55.801 358 0.2 142 -999
2005-04-06 07:13:11 51°13.7 2°55.801 355.2 1 351 -999
2005-04-06 07:13:16 51°13.702 2°55.8 349.5 1.6 343 -999
2005-04-06 07:13:21 51°13.706 2°55.797 341.4 2.3 337 11
2005-04-06 07:13:27 51°13.71 2°55.793 333.8 2.9 328 11.1
2005-04-06 07:13:31 51°13.713 2°55.788 324.1 3.4 320 11.1
2005-04-06 07:13:37 51°13.717 2°55.781 317.9 3.6 315 11.3
2005-04-06 07:13:41 51°13.72 2°55.775 313.5 4 312 11.3
2005-04-06 07:13:46 51°13.724 2°55.767 311.1 4.1 310 11.3
2005-04-06 07:13:52 51°13.729 2°55.758 309.9 4.1 310 10.7
2005-04-06 07:13:57 51°13.733 2°55.751 309.8 4.6 309 10
2005-04-06 07:14:02 51°13.737 2°55.743 310.4 4.6 310 9.9
2005-04-06 07:14:06 51°13.741 2°55.736 311.4 4.7 311 9.5
2005-04-06 07:14:11 51°13.745 2°55.728 312.8 4.7 311 9.1
2005-04-06 07:14:17 51°13.75 2°55.719 314.1 4.9 312 9.1
2005-04-06 07:14:22 51°13.756 2°55.709 314.6 5.1 312 9.1
2005-04-06 07:14:27 51°13.762 2°55.7 315.3 5.1 312 9.1
2005-04-06 07:14:30 51°13.766 2°55.694 317.3 5.7 316 9.3
2005-04-06 07:14:37 51°13.774 2°55.682 320 5.9 319 9.4
2005-04-06 07:14:41 51°13.781 2°55.675 323.4 5.9 319 9.4
2005-04-06 07:14:47 51°13.788 2°55.666 325.9 6.1 322 9.3
2005-04-06 07:14:52 51°13.796 2°55.658 327.7 6.1 322 9.5
2005-04-06 07:14:56 51°13.803 2°55.651 328.8 6.5 326 9.6
2005-04-06 07:15:01 51°13.81 2°55.643 330.7 6.7 328 9.6
2005-04-06 07:15:07 51°13.819 2°55.635 332.2 6.7 329 9.6
2005-04-06 07:15:11 51°13.826 2°55.629 333.8 6.9 331 9.6
2005-04-06 07:15:15 51°13.833 2°55.624 335.4 7.2 333 9.6
2005-04-06 07:15:22 51°13.846 2°55.614 337.2 7.2 333 -999
2005-04-06 07:15:27 51°13.855 2°55.607 338.4 7.2 333 9.5
2005-04-06 07:15:31 51°13.863 2°55.602 338.7 7.2 333 9.5
2005-04-06 07:15:37 51°13.874 2°55.593 338.6 7.5 335 9.5
2005-04-06 07:15:42 51°13.884 2°55.586 338.8 7.5 335 9.4
2005-04-06 07:15:47 51°13.893 2°55.579 339.5 7.8 336 9.4
2005-04-06 07:15:51 51°13.901 2°55.573 339.8 7.9 336 9.4
2005-04-06 07:15:57 51°13.913 2°55.565 339.8 7.9 336 9.3
2005-04-06 07:16:01 51°13.922 2°55.559 340.2 7.9 337 9.2
2005-04-06 07:16:05 51°13.931 2°55.554 341.4 7.9 337 9.4
2005-04-06 07:16:11 51°13.943 2°55.546 342.2 8 338 9.4
2005-04-06 07:16:17 51°13.954 2°55.538 341.8 8.1 338 9.5
2005-04-06 07:16:21 51°13.964 2°55.532 340.8 8.1 337 9.4
2005-04-06 07:16:27 51°13.975 2°55.524 340.4 8.1 337 9.4
2005-04-06 07:16:31 51°13.985 2°55.517 340.1 8.3 336 9.4
2005-04-06 07:16:36 51°13.995 2°55.51 340 8.3 337 9.5
2005-04-06 07:16:41 51°14.006 2°55.502 339.6 8.3 337 9.3
2005-04-06 07:16:45 51°14.014 2°55.496 339.4 8.4 336 9.1
2005-04-06 07:16:51 51°14.027 2°55.487 339.4 8.5 335 9.1
2005-04-06 07:16:57 51°14.039 2°55.478 339.1 8.5 335 9
2005-04-06 07:17:01 51°14.049 2°55.47 338.5 8.8 334 8.8
2005-04-06 07:17:07 51°14.061 2°55.462 338.9 8.8 335 8.9
2005-04-06 07:17:11 51°14.072 2°55.454 339.6 8.8 335 8.9
2005-04-06 07:17:17 51°14.084 2°55.445 339.7 9 335 8.9
2005-04-06 07:17:22 51°14.096 2°55.437 339.5 9 335 9
2005-04-06 07:17:26 51°14.105 2°55.43 339.6 9.1 336 9.1
2005-04-06 07:17:31 51°14.118 2°55.421 339.2 9.1 335 9.1
2005-04-06 07:17:37 51°14.13 2°55.411 338.3 9.1 334 9.4
2005-04-06 07:17:41 51°14.14 2°55.403 337.6 9.2 333 10.2
2005-04-06 07:17:46 51°14.151 2°55.393 337.5 9.3 334 9.7
2005-04-06 07:17:51 51°14.162 2°55.384 336.8 9.4 332 10.9
2005-04-06 07:17:55 51°14.172 2°55.375 335.6 9.5 331 10.1
2005-04-06 07:18:01 51°14.186 2°55.362 334 9.6 329 10.4
2005-04-06 07:18:07 51°14.198 2°55.349 332.8 9.6 328 10
2005-04-06 07:18:11 51°14.207 2°55.339 330.6 9.6 326 10
2005-04-06 07:18:16 51°14.219 2°55.325 329.1 9.7 324 10
2005-04-06 07:18:21 51°14.229 2°55.311 326.5 9.7 322 9.9
2005-04-06 07:18:26 51°14.238 2°55.298 324.1 9.7 320 10.3
2005-04-06 07:18:31 51°14.248 2°55.284 321.8 9.8 317 10
2005-04-06 07:18:37 51°14.259 2°55.266 320 9.8 316 10
2005-04-06 07:18:41 51°14.268 2°55.251 318.7 9.7 315 10.4
2005-04-06 07:18:45 51°14.274 2°55.24 316.9 9.7 313 10
2005-04-06 07:18:51 51°14.285 2°55.221 315.8 9.8 312 10.1
2005-04-06 07:18:56 51°14.295 2°55.203 315 9.8 312 9.7
2005-04-06 07:19:02 51°14.306 2°55.183 314.7 9.8 312 9.7
2005-04-06 07:19:05 51°14.312 2°55.173 314.4 10.3 311 9.6
2005-04-06 07:19:11 51°14.322 2°55.153 313.5 10.4 311 10.2
2005-04-06 07:19:17 51°14.333 2°55.13 312.1 10.7 308 10.2
2005-04-06 07:19:21 51°14.34 2°55.115 311.4 10.9 309 10
2005-04-06 07:19:27 51°14.352 2°55.092 311.3 11.1 308 10
2005-04-06 07:19:31 51°14.361 2°55.073 311.4 11.1 308 9.6
2005-04-06 07:19:37 51°14.371 2°55.052 311.3 11.3 307 9.7
2005-04-06 07:19:41 51°14.379 2°55.032 309.8 11.3 307 9.8
2005-04-06 07:19:46 51°14.387 2°55.011 307.8 11.5 302 9.8
2005-04-06 07:19:51 51°14.394 2°54.987 304.1 11.6 298 9.9
2005-04-06 07:19:57 51°14.401 2°54.96 301.6 11.7 297 9.9
2005-04-06 07:20:01 51°14.406 2°54.939 297.5 11.7 297 10
2005-04-06 07:20:07 51°14.412 2°54.911 294.8 12 289 10
2005-04-06 07:20:12 51°14.416 2°54.881 291 12.2 287 10
2005-04-06 07:20:15 51°14.419 2°54.866 288.8 12.1 286 10
2005-04-06 07:20:22 51°14.425 2°54.835 289 12.1 286 10
2005-04-06 07:20:26 51°14.429 2°54.815 289.5 10.8 287 10
2005-04-06 07:20:32 51°14.433 2°54.792 289.9 10.3 287 10.1
2005-04-06 07:20:37 51°14.436 2°54.772 289.9 9.5 286 10.1
2005-04-06 07:20:41 51°14.439 2°54.755 288.9 9 285 10.2
2005-04-06 07:20:46 51°14.442 2°54.738 287.5 8.6 284 10.2
2005-04-06 07:20:51 51°14.443 2°54.723 285.7 8.6 284 10.2
2005-04-06 07:20:57 51°14.445 2°54.704 284.3 8.6 284 10.2
2005-04-06 07:21:01 51°14.447 2°54.692 282.4 8.6 284 10.2
2005-04-06 07:21:06 51°14.449 2°54.677 282.1 6.6 280 10.3
2005-04-06 07:21:11 51°14.45 2°54.664 281.9 6 280 10.3
2005-04-06 07:21:17 51°14.452 2°54.649 281.8 5.8 280 10.3
2005-04-06 07:21:22 51°14.453 2°54.637 281.8 5.7 280 10.3
2005-04-06 07:21:26 51°14.454 2°54.628 281.6 5.2 280 10.3
2005-04-06 07:21:31 51°14.456 2°54.615 281.5 5 280 10.4
2005-04-06 07:21:37 51°14.457 2°54.604 281.2 4.9 280 10.3
2005-04-06 07:21:41 51°14.457 2°54.597 280.7 4.6 279 10.3
2005-04-06 07:21:47 51°14.458 2°54.585 280.1 4.6 279 10.4
2005-04-06 07:21:52 51°14.459 2°54.576 279.7 4.6 279 10.3
2005-04-06 07:21:57 51°14.46 2°54.568 279.2 4 278 10.3
2005-04-06 07:22:01 51°14.46 2°54.56 278.7 3.9 277 10.3
2005-04-06 07:22:07 51°14.461 2°54.552 278 3.9 277 10.3
2005-04-06 07:22:12 51°14.461 2°54.544 277.2 3.7 275 10.3
2005-04-06 07:22:16 51°14.461 2°54.537 276.6 3.5 274 10.3
2005-04-06 07:22:21 51°14.461 2°54.53 275.9 3.5 274 10.3
2005-04-06 07:22:27 51°14.462 2°54.522 275.4 3.3 273 10.3
2005-04-06 07:22:31 51°14.462 2°54.516 275 3.2 273 10.3
2005-04-06 07:22:37 51°14.462 2°54.508 274.9 3.1 273 10.3
2005-04-06 07:22:41 51°14.462 2°54.503 274.6 3.1 273 10.3
2005-04-06 07:22:46 51°14.462 2°54.496 274.6 2.9 272 10.3
2005-04-06 07:22:52 51°14.462 2°54.489 274.5 2.9 272 10.3
2005-04-06 07:22:57 51°14.462 2°54.483 274.4 2.7 273 10.3
2005-04-06 07:23:01 51°14.463 2°54.478 274.4 2.7 273 10.3
2005-04-06 07:23:06 51°14.463 2°54.472 274.3 2.6 272 10.3
2005-04-06 07:23:11 51°14.463 2°54.467 274.3 2.5 273 10.3
2005-04-06 07:23:17 51°14.463 2°54.461 274.3 2.5 273 10.3
2005-04-06 07:23:22 51°14.463 2°54.455 274.3 2.4 273 10.3
2005-04-06 07:23:25 51°14.463 2°54.451 274.4 2.4 273 10.3
2005-04-06 07:23:30 51°14.463 2°54.447 274.6 2.4 273 10.3
2005-04-06 07:23:37 51°14.463 2°54.44 274.7 2.2 273 10.3
2005-04-06 07:23:41 51°14.463 2°54.436 274.7 2.2 274 10.3
2005-04-06 07:23:46 51°14.463 2°54.432 274.6 2.1 272 10.3
2005-04-06 07:23:51 51°14.463 2°54.427 274.4 2.1 272 10.2
2005-04-06 07:23:56 51°14.464 2°54.423 274.3 2 273 10.3
2005-04-06 07:24:02 51°14.464 2°54.417 274.3 2 273 10.2
2005-04-06 07:24:07 51°14.464 2°54.414 274.3 1.9 274 10.3
2005-04-06 07:24:11 51°14.464 2°54.41 274.3 1.9 274 10.3
2005-04-06 07:24:17 51°14.464 2°54.405 274.3 1.9 275 10.3
2005-04-06 07:24:21 51°14.465 2°54.402 274.3 1.8 274 10.2
2005-04-06 07:24:27 51°14.465 2°54.398 274.3 1.8 276 10.3
2005-04-06 07:24:32 51°14.465 2°54.394 274.3 1.8 276 10.3
2005-04-06 07:24:37 51°14.465 2°54.39 274.3 1.7 277 10.3
2005-04-06 07:24:41 51°14.466 2°54.387 274.3 1.6 276 10.3
2005-04-06 07:24:47 51°14.466 2°54.383 274.3 1.6 276 10.3
2005-04-06 07:24:51 51°14.466 2°54.38 274.3 1.6 277 10.3
2005-04-06 07:24:57 51°14.466 2°54.376 274.2 1.6 277 10.3
2005-04-06 07:25:02 51°14.467 2°54.373 274.1 1.5 276 10.2
2005-04-06 07:25:06 51°14.467 2°54.37 274 1.5 276 10.3
2005-04-06 07:25:11 51°14.467 2°54.367 273.8 1.5 276 10.2
2005-04-06 07:25:16 51°14.467 2°54.363 273.6 1.4 277 10.2
2005-04-06 07:25:21 51°14.467 2°54.36 273.4 1.4 277 10.2
2005-04-06 07:25:27 51°14.467 2°54.357 273.2 1.4 275 10.3
2005-04-06 07:25:31 51°14.468 2°54.355 273 1.3 276 10.3
2005-04-06 07:25:37 51°14.468 2°54.351 272.9 1.3 276 10.3
2005-04-06 07:25:41 51°14.468 2°54.349 272.8 1.3 276 10.3
2005-04-06 07:25:47 51°14.468 2°54.346 272.6 1.3 276 10.2
2005-04-06 07:25:51 51°14.468 2°54.343 272.5 1.2 277 10.3
2005-04-06 07:25:57 51°14.468 2°54.34 272.3 1.2 277 10.2
2005-04-06 07:26:02 51°14.468 2°54.338 272.1 1.2 275 10.3
2005-04-06 07:26:06 51°14.469 2°54.336 271.8 1.2 277 10.3
2005-04-06 07:26:12 51°14.469 2°54.333 271.5 1.2 277 10.3
2005-04-06 07:26:17 51°14.469 2°54.33 271.2 1.1 279 10.3
2005-04-06 07:26:21 51°14.469 2°54.328 271.1 1.1 278 10.2
2005-04-06 07:26:27 51°14.469 2°54.326 270.8 1.1 281 10.3
2005-04-06 07:26:31 51°14.47 2°54.324 270.7 1 279 10.2
2005-04-06 07:26:36 51°14.47 2°54.322 270.7 1 281 10.2
2005-04-06 07:26:41 51°14.47 2°54.32 270.7 1 281 10.3
2005-04-06 07:26:46 51°14.47 2°54.317 270.8 1 281 10.3
2005-04-06 07:26:51 51°14.47 2°54.315 270.8 1 280 10.3
2005-04-06 07:26:57 51°14.471 2°54.313 270.8 0.9 279 10.3
2005-04-06 07:27:02 51°14.471 2°54.311 270.7 0.9 280 10.3
2005-04-06 07:27:07 51°14.471 2°54.309 270.6 0.9 280 10.3
2005-04-06 07:27:11 51°14.471 2°54.308 270.4 0.9 281 10.2
2005-04-06 07:27:17 51°14.471 2°54.305 270.2 0.9 281 10.3
2005-04-06 07:27:21 51°14.472 2°54.304 270.1 0.8 281 10.2
2005-04-06 07:27:26 51°14.472 2°54.302 270 0.8 278 10.3
2005-04-06 07:27:31 51°14.472 2°54.3 269.9 0.8 279 10.3
2005-04-06 07:27:37 51°14.472 2°54.298 269.9 0.8 276 10.3
2005-04-06 07:27:41 51°14.472 2°54.297 269.7 0.8 281 10.2
2005-04-06 07:27:46 51°14.472 2°54.295 269.3 0.8 281 10.3
2005-04-06 07:27:51 51°14.473 2°54.293 269.1 0.8 281 10.3
2005-04-06 07:27:57 51°14.473 2°54.291 268.8 0.7 282 10.3
2005-04-06 07:28:02 51°14.473 2°54.29 268.6 0.7 285 10.3
2005-04-06 07:28:06 51°14.473 2°54.289 268.4 0.7 286 10.2
2005-04-06 07:28:11 51°14.474 2°54.288 268.3 0.7 287 10.3
2005-04-06 07:28:16 51°14.474 2°54.286 268.3 0.7 287 10.3
2005-04-06 07:28:22 51°14.474 2°54.285 268.4 0.7 287 10.2
2005-04-06 07:28:27 51°14.474 2°54.283 268.5 0.7 293 10.3
2005-04-06 07:28:31 51°14.475 2°54.282 268.7 0.7 293 10.3
2005-04-06 07:28:36 51°14.475 2°54.281 268.7 0.6 292 10.3
2005-04-06 07:28:41 51°14.475 2°54.279 268.9 0.7 292 10.3
2005-04-06 07:28:47 51°14.476 2°54.278 268.9 0.6 292 10.2
2005-04-06 07:28:51 51°14.476 2°54.276 269.1 0.6 292 10.3
2005-04-06 07:28:57 51°14.476 2°54.275 269.2 0.6 292 10.4
2005-04-06 07:29:02 51°14.477 2°54.274 269.3 0.6 295 10.3
2005-04-06 07:29:06 51°14.477 2°54.273 269.6 0.6 302 10.4
2005-04-06 07:29:11 51°14.478 2°54.272 269.9 0.5 294 10.3
2005-04-06 07:29:16 51°14.478 2°54.271 270.2 0.6 307 10.4
2005-04-06 07:29:21 51°14.479 2°54.27 270.6 0.6 306 10.3
2005-04-06 07:29:26 51°14.479 2°54.269 271 0.6 311 10.3
2005-04-06 07:29:32 51°14.48 2°54.268 271.4 0.6 308 10.3
2005-04-06 07:29:37 51°14.48 2°54.267 271.8 0.6 308 10.3
2005-04-06 07:29:41 51°14.481 2°54.266 272.3 0.6 315 10.3
2005-04-06 07:29:47 51°14.481 2°54.265 272.9 0.5 313 10.3
2005-04-06 07:29:51 51°14.482 2°54.264 273.3 0.6 315 10.4
2005-04-06 07:29:57 51°14.482 2°54.263 273.7 0.5 314 10.4
2005-04-06 07:30:01 51°14.483 2°54.262 274.1 0.5 314 10.4
2005-04-06 07:30:06 51°14.483 2°54.259 274.7 0.5 314 10.4
2005-04-06 07:30:12 51°14.484 2°54.255 275.1 0.5 314 10.4
2005-04-06 07:30:17 51°14.484 2°54.249 275.6 2.2 282 10.3
2005-04-06 07:30:21 51°14.485 2°54.243 275.6 3 277 10.3
2005-04-06 07:30:27 51°14.485 2°54.233 274.6 3.7 275 10.3
2005-04-06 07:30:31 51°14.485 2°54.225 273.3 3.7 275 10.2
2005-04-06 07:30:37 51°14.485 2°54.213 271.7 4.6 270 10.2
2005-04-06 07:30:41 51°14.485 2°54.205 270 4.6 270 10.2
2005-04-06 07:30:47 51°14.485 2°54.192 268.7 4.8 267 10.1
2005-04-06 07:30:51 51°14.484 2°54.184 267.1 4.8 266 10
2005-04-06 07:30:57 51°14.483 2°54.171 265.8 4.8 263 10
2005-04-06 07:31:01 51°14.483 2°54.163 265 4.8 265 9.9
2005-04-06 07:31:07 51°14.482 2°54.15 265.1 4.8 264 9.9
2005-04-06 07:31:12 51°14.481 2°54.14 266 4.8 265 9.8
2005-04-06 07:31:15 51°14.481 2°54.133 267.4 4.9 268 9.7
2005-04-06 07:31:21 51°14.481 2°54.12 269 5 268 9.8
2005-04-06 07:31:27 51°14.481 2°54.106 270.8 5.1 268 9.8
2005-04-06 07:31:31 51°14.481 2°54.096 273.1 5.3 273 9.8
2005-04-06 07:31:36 51°14.482 2°54.084 275.6 5.4 274 9.8
2005-04-06 07:31:41 51°14.483 2°54.071 278.3 5.4 274 9.8
2005-04-06 07:31:46 51°14.484 2°54.059 280.7 5.5 278 9.9
2005-04-06 07:31:51 51°14.486 2°54.048 281.9 5.5 278 9.8
2005-04-06 07:31:57 51°14.487 2°54.033 281.9 5.7 279 9.8
2005-04-06 07:32:01 51°14.488 2°54.021 281.4 5.8 277 9.8
2005-04-06 07:32:07 51°14.489 2°54.008 281 5.8 277 9.8
2005-04-06 07:32:11 51°14.489 2°53.998 280.1 5.4 276 9.8
2005-04-06 07:32:17 51°14.49 2°53.984 278.8 5.4 276 9.8
2005-04-06 07:32:22 51°14.49 2°53.972 276.9 5.4 276 9.8
2005-04-06 07:32:27 51°14.49 2°53.96 274.8 5.6 269 9.8
2005-04-06 07:32:31 51°14.489 2°53.949 271 5.7 266 9.8
2005-04-06 07:32:37 51°14.486 2°53.933 265.6 6.1 258 9.8
2005-04-06 07:32:41 51°14.484 2°53.922 259.8 6.3 253 9.8
2005-04-06 07:32:45 51°14.481 2°53.911 253.6 6.6 249 9.7
2005-04-06 07:32:51 51°14.474 2°53.894 245.3 6.9 243 9.7
2005-04-06 07:32:57 51°14.467 2°53.879 239.2 7.5 233 9.8
2005-04-06 07:33:02 51°14.46 2°53.865 233.3 7.5 233 9.8
2005-04-06 07:33:07 51°14.452 2°53.85 231.5 8.2 231 9.7
2005-04-06 07:33:11 51°14.446 2°53.838 231.3 8.5 231 9.7
2005-04-06 07:33:17 51°14.436 2°53.82 231.3 8.9 230 9.7
2005-04-06 07:33:22 51°14.427 2°53.802 231.3 9.4 231 9.7
2005-04-06 07:33:27 51°14.419 2°53.786 231.3 9.9 231 9.8
2005-04-06 07:33:31 51°14.411 2°53.77 231.6 10.1 231 9.8
2005-04-06 07:33:37 51°14.4 2°53.75 231.8 10.1 231 9.7
2005-04-06 07:33:41 51°14.392 2°53.733 231.8 10.8 231 9.7
2005-04-06 07:33:47 51°14.381 2°53.713 232 10.8 231 9.7
2005-04-06 07:33:51 51°14.373 2°53.697 231.9 11.3 231 9.7
2005-04-06 07:33:57 51°14.361 2°53.674 232.1 11.3 231 9.7
2005-04-06 07:34:01 51°14.352 2°53.656 232.3 11.5 231 9.6
2005-04-06 07:34:07 51°14.341 2°53.634 232.3 11.6 231 9.6
2005-04-06 07:34:11 51°14.333 2°53.617 233 11.7 232 9.6
2005-04-06 07:34:17 51°14.321 2°53.593 233.3 11.7 232 9.6
2005-04-06 07:34:21 51°14.313 2°53.577 232.4 11.9 231 9.6
2005-04-06 07:34:26 51°14.301 2°53.554 232.3 11.8 231 9.6
2005-04-06 07:34:31 51°14.292 2°53.535 232.7 11.9 232 9.6
2005-04-06 07:34:36 51°14.28 2°53.513 232.2 12 231 9.6
2005-04-06 07:34:42 51°14.27 2°53.489 232.2 12 231 9.6
2005-04-06 07:34:46 51°14.262 2°53.472 234.2 12 234 9.6
2005-04-06 07:34:51 51°14.251 2°53.448 235.8 12.1 235 9.6
2005-04-06 07:34:55 51°14.244 2°53.43 236.7 12 236 9.6
2005-04-06 07:35:02 51°14.231 2°53.399 237.9 12 237 9.6
2005-04-06 07:35:05 51°14.226 2°53.386 238.6 12.1 237 9.7
2005-04-06 07:35:12 51°14.214 2°53.356 238.7 12.1 237 9.7
2005-04-06 07:35:16 51°14.206 2°53.336 238.9 12.1 238 9.7
2005-04-06 07:35:21 51°14.198 2°53.316 239.2 12.1 238 9.7
2005-04-06 07:35:27 51°14.187 2°53.288 239.3 12.1 237 9.8
2005-04-06 07:35:31 51°14.179 2°53.267 239.2 12.1 237 9.8
2005-04-06 07:35:37 51°14.169 2°53.243 238.9 12.1 237 9.7
2005-04-06 07:35:41 51°14.161 2°53.224 238.7 12.2 237 9.7
2005-04-06 07:35:47 51°14.151 2°53.197 238.7 12.2 237 9.9
2005-04-06 07:35:52 51°14.142 2°53.174 238.8 12.2 237 9.8
2005-04-06 07:35:57 51°14.133 2°53.152 239.1 12.2 238 9.9
2005-04-06 07:36:02 51°14.123 2°53.129 239.4 12.2 238 9.9
2005-04-06 07:36:07 51°14.115 2°53.106 239.5 12.1 238 10
2005-04-06 07:36:11 51°14.106 2°53.085 239.5 12.1 238 10
2005-04-06 07:36:16 51°14.097 2°53.063 239.8 12.2 238 10
2005-04-06 07:36:21 51°14.088 2°53.04 239.8 12.2 238 10.1
2005-04-06 07:36:27 51°14.078 2°53.015 239.7 12.2 238 10.2
2005-04-06 07:36:31 51°14.071 2°52.997 239.2 12.2 238 10.2
2005-04-06 07:36:37 51°14.06 2°52.97 239.3 12.2 238 10.2
2005-04-06 07:36:41 51°14.052 2°52.949 239.3 12.2 238 10.3
2005-04-06 07:36:46 51°14.043 2°52.926 239.3 12.2 238 10.3
2005-04-06 07:36:51 51°14.035 2°52.906 239.2 12.2 238 10.3
2005-04-06 07:36:57 51°14.024 2°52.879 239.2 12.2 238 10.4
2005-04-06 07:37:02 51°14.015 2°52.856 239.3 12.2 237 10.3
2005-04-06 07:37:06 51°14.007 2°52.836 239.2 12.2 238 10.3
2005-04-06 07:37:12 51°13.996 2°52.808 239.1 12.2 237 10.4
2005-04-06 07:37:15 51°13.991 2°52.797 239.6 12.2 239 10.4
2005-04-06 07:37:21 51°13.98 2°52.767 240.1 12.2 239 10.4
2005-04-06 07:37:26 51°13.971 2°52.743 240.7 12.2 240 10.4
2005-04-06 07:37:32 51°13.962 2°52.717 240.9 12.2 240 10.4
2005-04-06 07:37:36 51°13.954 2°52.696 241 12.2 240 10.4
2005-04-06 07:37:41 51°13.945 2°52.673 241.1 12.2 239 10.5
2005-04-06 07:37:46 51°13.937 2°52.652 240.9 12.3 239 10.5
2005-04-06 07:37:50 51°13.929 2°52.631 240.8 12.3 239 10.5
2005-04-06 07:37:55 51°13.922 2°52.61 240.9 12.3 239 10.5
2005-04-06 07:38:02 51°13.91 2°52.577 241 12.3 239 10.6
2005-04-06 07:38:07 51°13.901 2°52.554 241.3 12.3 240 10.5
2005-04-06 07:38:11 51°13.894 2°52.535 241.7 12.3 240 10.5
2005-04-06 07:38:14 51°13.888 2°52.519 241.7 12.3 240 10.5
2005-04-06 07:38:22 51°13.874 2°52.481 241.7 12.3 240 10.5
2005-04-06 07:38:26 51°13.868 2°52.462 241.6 12.3 240 10.5
2005-04-06 07:38:32 51°13.858 2°52.437 241.4 12.3 240 10.6
2005-04-06 07:38:37 51°13.849 2°52.413 241.3 12.3 240 10.6
2005-04-06 07:38:42 51°13.841 2°52.39 241.4 12.3 240 10.6
2005-04-06 07:38:47 51°13.832 2°52.366 241.5 12.3 240 10.6
2005-04-06 07:38:51 51°13.825 2°52.347 241.7 12.3 240 10.5
2005-04-06 07:38:57 51°13.815 2°52.319 241.8 12.3 240 10.5
2005-04-06 07:39:01 51°13.808 2°52.298 241.9 12.3 240 10.5
2005-04-06 07:39:06 51°13.8 2°52.274 242 12.3 240 10.5
2005-04-06 07:39:11 51°13.791 2°52.249 241.9 12.4 240 10.5
2005-04-06 07:39:17 51°13.781 2°52.223 241.6 12.8 240 10.6
2005-04-06 07:39:22 51°13.772 2°52.198 241.2 12.8 240 10.6
2005-04-06 07:39:26 51°13.764 2°52.178 240.9 13 240 10.6
2005-04-06 07:39:31 51°13.754 2°52.15 240.7 13.2 239 10.6
2005-04-06 07:39:37 51°13.743 2°52.123 240.7 13.3 239 10.6
2005-04-06 07:39:41 51°13.735 2°52.1 240.8 13.4 239 10.5
2005-04-06 07:39:46 51°13.725 2°52.074 241 13.5 240 10.5
2005-04-06 07:39:51 51°13.717 2°52.05 241.2 13.5 240 10.5
2005-04-06 07:39:57 51°13.704 2°52.017 241.2 13.5 240 10.5
2005-04-06 07:40:01 51°13.697 2°51.996 241.2 13.7 239 10.6
2005-04-06 07:40:07 51°13.686 2°51.967 241.2 13.7 239 10.5
2005-04-06 07:40:11 51°13.678 2°51.946 241.2 13.7 239 10.6
2005-04-06 07:40:16 51°13.668 2°51.917 241.2 13.8 240 10.5
2005-04-06 07:40:22 51°13.657 2°51.888 241.2 13.8 240 10.6
2005-04-06 07:40:27 51°13.647 2°51.862 241.1 13.8 239 10.7
2005-04-06 07:40:31 51°13.639 2°51.841 240.9 13.8 239 10.7
2005-04-06 07:40:37 51°13.628 2°51.81 240.7 13.8 239 10.7
2005-04-06 07:40:41 51°13.619 2°51.786 240.7 13.8 239 10.7
2005-04-06 07:40:46 51°13.61 2°51.762 240.8 13.8 240 10.8
2005-04-06 07:40:51 51°13.599 2°51.732 240.9 13.8 239 10.7
2005-04-06 07:40:57 51°13.588 2°51.704 241.1 13.8 240 10.8
2005-04-06 07:41:01 51°13.58 2°51.68 241.4 13.8 240 10.8
2005-04-06 07:41:07 51°13.569 2°51.651 241.5 13.8 240 10.8
2005-04-06 07:41:11 51°13.561 2°51.63 241.4 13.8 240 10.8
2005-04-06 07:41:17 51°13.55 2°51.598 241.3 13.8 240 10.8
2005-04-06 07:41:21 51°13.541 2°51.574 241.2 13.8 240 10.8
2005-04-06 07:41:27 51°13.53 2°51.545 241.3 13.8 240 10.8
2005-04-06 07:41:31 51°13.523 2°51.524 241.5 13.7 240 10.8
2005-04-06 07:41:37 51°13.51 2°51.49 241.5 13.8 240 10.8
2005-04-06 07:41:41 51°13.502 2°51.468 241.2 13.9 240 10.8
2005-04-06 07:41:46 51°13.493 2°51.442 241.4 13.8 240 10.9
2005-04-06 07:41:51 51°13.484 2°51.418 241.4 13.8 240 11
2005-04-06 07:41:57 51°13.473 2°51.386 241.5 13.8 240 10.9
2005-04-06 07:42:01 51°13.465 2°51.365 241.4 13.8 240 11
2005-04-06 07:42:07 51°13.453 2°51.333 241.3 13.8 240 10.9
2005-04-06 07:42:11 51°13.444 2°51.309 241.3 13.8 240 10.9
2005-04-06 07:42:17 51°13.434 2°51.281 241.3 13.8 240 11
2005-04-06 07:42:21 51°13.425 2°51.257 241 13.8 240 11
2005-04-06 07:42:27 51°13.414 2°51.229 240.9 13.8 240 11
2005-04-06 07:42:31 51°13.407 2°51.207 240.7 13.8 239 10.9
2005-04-06 07:42:35 51°13.399 2°51.186 240.8 13.7 240 11
2005-04-06 07:42:41 51°13.388 2°51.155 241 13.7 240 11
2005-04-06 07:42:46 51°13.377 2°51.126 241.2 13.7 240 11
2005-04-06 07:42:51 51°13.368 2°51.103 241.2 13.7 240 11
2005-04-06 07:42:57 51°13.357 2°51.071 241.2 13.7 240 11
2005-04-06 07:43:02 51°13.347 2°51.045 241.3 13.7 240 11
2005-04-06 07:43:06 51°13.339 2°51.021 241.3 13.7 240 11
2005-04-06 07:43:11 51°13.329 2°50.995 241.5 13.7 240 11
2005-04-06 07:43:17 51°13.319 2°50.966 241.6 13.7 240 11.1
2005-04-06 07:43:21 51°13.31 2°50.943 241.5 13.7 240 11
2005-04-06 07:43:27 51°13.3 2°50.914 241 13.7 240 11.1
2005-04-06 07:43:32 51°13.29 2°50.888 240.7 13.7 240 11.1
2005-04-06 07:43:37 51°13.279 2°50.86 240.7 13.7 240 11.2
2005-04-06 07:43:42 51°13.271 2°50.836 240.8 13.7 239 11.1
2005-04-06 07:43:46 51°13.262 2°50.813 240.8 13.7 240 11.1
2005-04-06 07:43:51 51°13.253 2°50.79 241.1 13.7 240 11.1
2005-04-06 07:43:56 51°13.243 2°50.761 241.1 13.7 240 11.1
2005-04-06 07:44:02 51°13.231 2°50.73 241.2 13.6 240 11.1
2005-04-06 07:44:07 51°13.223 2°50.706 241.2 13.6 240 11.2
2005-04-06 07:44:12 51°13.213 2°50.68 241.1 13.7 240 11.2
2005-04-06 07:44:16 51°13.205 2°50.657 241.4 13.7 240 11.1
2005-04-06 07:44:21 51°13.195 2°50.631 241.3 13.7 240 11.2
2005-04-06 07:44:27 51°13.184 2°50.602 241.3 13.7 240 11.1
2005-04-06 07:44:31 51°13.176 2°50.578 241.3 13.7 240 11.2
2005-04-06 07:44:37 51°13.165 2°50.55 241.5 13.7 240 11.2
2005-04-06 07:44:41 51°13.158 2°50.529 241.4 13.7 240 11.2
2005-04-06 07:44:45 51°13.15 2°50.508 241.3 13.6 239 11.2
2005-04-06 07:44:51 51°13.139 2°50.477 241 13.7 239 11.3
2005-04-06 07:44:57 51°13.127 2°50.446 240.9 13.6 240 11.3
2005-04-06 07:45:02 51°13.117 2°50.42 240.8 13.7 239 11.3
2005-04-06 07:45:06 51°13.109 2°50.396 240.9 13.7 240 11.3
2005-04-06 07:45:11 51°13.099 2°50.369 241.1 13.7 240 11.3
2005-04-06 07:45:17 51°13.089 2°50.341 241.3 13.7 240 11.3
2005-04-06 07:45:22 51°13.079 2°50.315 241.3 13.7 240 11.3
2005-04-06 07:45:27 51°13.07 2°50.288 241.5 13.7 240 11.4
2005-04-06 07:45:30 51°13.064 2°50.27 241.6 13.7 240 11.3
2005-04-06 07:45:36 51°13.052 2°50.238 241.7 13.7 241 11.3
2005-04-06 07:45:41 51°13.043 2°50.212 241.7 13.7 241 11.3
2005-04-06 07:45:47 51°13.032 2°50.183 241.5 13.7 240 11.4
2005-04-06 07:45:52 51°13.022 2°50.157 240.9 13.7 239 11.4
2005-04-06 07:45:57 51°13.013 2°50.132 240.1 13.7 239 11.4
2005-04-06 07:46:02 51°13.002 2°50.105 239.5 13.7 239 11.3
2005-04-06 07:46:06 51°12.994 2°50.085 239.3 13.7 238 11.4
2005-04-06 07:46:12 51°12.982 2°50.054 239 13.7 238 11.4
2005-04-06 07:46:17 51°12.972 2°50.029 238.9 13.7 238 11.5
2005-04-06 07:46:21 51°12.964 2°50.009 238.8 13.7 238 11.4
2005-04-06 07:46:27 51°12.952 2°49.977 238.7 13.7 238 11.4
2005-04-06 07:46:32 51°12.942 2°49.952 238.8 13.7 238 11.4
2005-04-06 07:46:36 51°12.933 2°49.929 238.8 13.7 238 11.4
2005-04-06 07:46:42 51°12.921 2°49.898 239.2 13.7 238 11.5
2005-04-06 07:46:45 51°12.915 2°49.882 239.3 13.7 238 11.5
2005-04-06 07:46:51 51°12.904 2°49.854 239.2 13.7 238 11.5
2005-04-06 07:46:55 51°12.896 2°49.834 239.1 13.7 238 11.5
2005-04-06 07:47:01 51°12.883 2°49.803 238.5 13.7 238 11.5
2005-04-06 07:47:07 51°12.871 2°49.772 238.7 13.7 238 11.5
2005-04-06 07:47:11 51°12.863 2°49.752 239.1 13.7 238 11.6
2005-04-06 07:47:17 51°12.852 2°49.721 239.1 13.7 238 11.6
2005-04-06 07:47:21 51°12.842 2°49.698 239.5 13.7 238 11.5
2005-04-06 07:47:26 51°12.832 2°49.672 239.2 13.7 239 11.6
2005-04-06 07:47:31 51°12.822 2°49.646 239.2 13.7 238 11.6
2005-04-06 07:47:37 51°12.811 2°49.618 239.4 13.7 238 11.7
2005-04-06 07:47:41 51°12.802 2°49.595 239.4 13.7 238 11.7
2005-04-06 07:47:46 51°12.792 2°49.569 239.3 13.7 238 11.7
2005-04-06 07:47:51 51°12.782 2°49.543 239.4 13.7 238 11.6
2005-04-06 07:47:57 51°12.771 2°49.515 239.4 13.7 238 11.7
2005-04-06 07:48:01 51°12.762 2°49.492 239.2 13.7 238 11.7
2005-04-06 07:48:06 51°12.752 2°49.467 238.9 13.7 238 11.6
2005-04-06 07:48:12 51°12.741 2°49.438 238.5 13.7 238 11.7
2005-04-06 07:48:16 51°12.732 2°49.415 238.5 13.7 238 11.6
2005-04-06 07:48:21 51°12.722 2°49.389 238.9 13.7 238 11.7
2005-04-06 07:48:27 51°12.711 2°49.361 239.2 13.7 239 11.7
2005-04-06 07:48:32 51°12.701 2°49.335 239.4 13.7 239 11.7
2005-04-06 07:48:37 51°12.691 2°49.31 239.5 13.7 239 11.7
2005-04-06 07:48:41 51°12.682 2°49.286 239.5 13.7 239 11.7
2005-04-06 07:48:45 51°12.674 2°49.266 239.6 13.7 239 11.7
2005-04-06 07:48:50 51°12.664 2°49.24 239.4 13.6 239 11.8
2005-04-06 07:48:57 51°12.652 2°49.207 239.1 13.7 238 11.8
2005-04-06 07:49:01 51°12.643 2°49.184 239.3 13.6 239 11.8
2005-04-06 07:49:07 51°12.632 2°49.155 239.4 13.6 238 11.9
2005-04-06 07:49:11 51°12.623 2°49.132 239.4 13.6 238 11.8
2005-04-06 07:49:17 51°12.612 2°49.104 239.5 13.6 239 11.9
2005-04-06 07:49:22 51°12.602 2°49.078 239.5 13.6 239 11.9
2005-04-06 07:49:25 51°12.595 2°49.06 239.5 13.6 239 11.9
2005-04-06 07:49:31 51°12.583 2°49.029 239.5 13.6 239 11.9
2005-04-06 07:49:36 51°12.573 2°49.004 239.5 13.6 238 11.9
2005-04-06 07:49:41 51°12.564 2°48.981 239.4 13.6 239 11.9
2005-04-06 07:49:45 51°12.556 2°48.957 239.3 13.6 239 11.8
2005-04-06 07:49:51 51°12.543 2°48.926 239.3 13.6 239 11.9
2005-04-06 07:49:57 51°12.533 2°48.899 239.5 13.6 239 11.9
2005-04-06 07:50:01 51°12.525 2°48.878 239.4 13.6 239 11.9
2005-04-06 07:50:07 51°12.513 2°48.847 239.3 13.6 239 11.9
2005-04-06 07:50:11 51°12.505 2°48.827 239.2 13.6 238 11.9
2005-04-06 07:50:17 51°12.493 2°48.796 239.4 13.6 238 12
2005-04-06 07:50:22 51°12.483 2°48.77 239.5 13.6 238 11.9
2005-04-06 07:50:27 51°12.473 2°48.745 239.5 13.6 238 12
2005-04-06 07:50:31 51°12.465 2°48.724 239.3 13.6 238 12
2005-04-06 07:50:37 51°12.453 2°48.694 238.9 13.6 238 12
2005-04-06 07:50:41 51°12.444 2°48.671 239.2 13.6 238 11.9
2005-04-06 07:50:46 51°12.434 2°48.645 239.2 13.6 239 12
2005-04-06 07:50:51 51°12.425 2°48.622 239.6 13.6 238 11.9
2005-04-06 07:50:57 51°12.412 2°48.589 239.5 13.6 238 12
2005-04-06 07:51:01 51°12.404 2°48.568 239.3 13.6 238 12
2005-04-06 07:51:06 51°12.394 2°48.543 238.8 13.6 239 12
2005-04-06 07:51:11 51°12.385 2°48.52 239.3 13.6 238 12
2005-04-06 07:51:16 51°12.375 2°48.492 239.3 13.6 239 12.1
2005-04-06 07:51:21 51°12.364 2°48.466 239.5 13.6 238 12
2005-04-06 07:51:27 51°12.354 2°48.438 239 13.6 238 12.1
2005-04-06 07:51:31 51°12.345 2°48.418 239 13.6 237 12
2005-04-06 07:51:37 51°12.333 2°48.387 238.9 13.6 237 12
2005-04-06 07:51:41 51°12.324 2°48.364 239.2 13.6 238 12.1
2005-04-06 07:51:46 51°12.315 2°48.339 239.3 13.6 238 12.1
2005-04-06 07:51:51 51°12.306 2°48.316 239.6 13.6 239 12.1
2005-04-06 07:51:57 51°12.294 2°48.285 239.5 13.6 238 12.1
2005-04-06 07:52:02 51°12.284 2°48.26 239.4 13.6 238 12.1
2005-04-06 07:52:07 51°12.274 2°48.234 239.2 13.6 238 12.1
2005-04-06 07:52:11 51°12.266 2°48.214 239.1 13.6 238 12.1
2005-04-06 07:52:15 51°12.258 2°48.193 239.3 13.6 238 12.1
2005-04-06 07:52:22 51°12.244 2°48.157 239.4 13.6 238 12.2
2005-04-06 07:52:27 51°12.234 2°48.132 239.6 13.6 238 12.2
2005-04-06 07:52:30 51°12.227 2°48.114 239.5 13.6 239 12.2
2005-04-06 07:52:37 51°12.214 2°48.081 239.3 13.5 238 12.1
2005-04-06 07:52:41 51°12.205 2°48.058 239.2 13.6 238 12.2
2005-04-06 07:52:47 51°12.194 2°48.03 239.1 13.5 238 12.1
2005-04-06 07:52:52 51°12.183 2°48.002 239.1 13.5 238 12.2
2005-04-06 07:52:57 51°12.174 2°47.979 239.1 13.5 238 12.1
2005-04-06 07:53:01 51°12.165 2°47.956 239.1 13.5 238 12.1
2005-04-06 07:53:06 51°12.155 2°47.931 239.2 13.5 238 12.1
2005-04-06 07:53:11 51°12.146 2°47.908 239.2 13.5 238 12.2
2005-04-06 07:53:17 51°12.135 2°47.877 239.4 13.6 238 12
2005-04-06 07:53:21 51°12.126 2°47.854 239.4 13.5 238 12
2005-04-06 07:53:27 51°12.115 2°47.827 239.5 13.5 238 12.1
2005-04-06 07:53:31 51°12.105 2°47.803 239.5 13.5 238 12
2005-04-06 07:53:36 51°12.096 2°47.779 238.9 13.5 238 12
2005-04-06 07:53:41 51°12.086 2°47.753 239.1 13.5 238 12
2005-04-06 07:53:47 51°12.075 2°47.726 239.1 13.5 238 12
2005-04-06 07:53:51 51°12.067 2°47.705 239.3 13.5 238 12
2005-04-06 07:53:56 51°12.056 2°47.678 239.5 13.5 238 11.9
2005-04-06 07:54:01 51°12.046 2°47.652 239.5 13.4 238 11.9
2005-04-06 07:54:06 51°12.036 2°47.627 239.1 13.5 238 11.9
2005-04-06 07:54:11 51°12.027 2°47.604 239.3 13.5 238 11.9
2005-04-06 07:54:17 51°12.015 2°47.574 239.5 13.4 238 11.9
2005-04-06 07:54:22 51°12.005 2°47.549 239.2 13.5 238 11.9
2005-04-06 07:54:26 51°11.997 2°47.529 239.2 13.5 238 11.9
2005-04-06 07:54:31 51°11.986 2°47.501 239.1 13.5 238 12
2005-04-06 07:54:37 51°11.975 2°47.473 239.1 13.5 238 11.8
2005-04-06 07:54:41 51°11.967 2°47.453 239.1 13.5 237 11.9
2005-04-06 07:54:47 51°11.955 2°47.423 239.4 13.5 238 11.9
2005-04-06 07:54:50 51°11.949 2°47.405 239.9 13.4 239 11.8
2005-04-06 07:54:57 51°11.936 2°47.373 239.9 13.4 239 11.8
2005-04-06 07:55:02 51°11.926 2°47.347 239.5 13.4 239 11.8
2005-04-06 07:55:07 51°11.916 2°47.322 239.4 13.4 238 11.8
2005-04-06 07:55:12 51°11.906 2°47.297 239.5 13.4 238 11.7
2005-04-06 07:55:17 51°11.896 2°47.272 239.5 13.4 238 11.7
2005-04-06 07:55:21 51°11.887 2°47.25 239.5 13.4 238 11.8
2005-04-06 07:55:26 51°11.878 2°47.224 239.5 13.4 238 11.7
2005-04-06 07:55:31 51°11.869 2°47.202 239.5 13.4 238 11.7
2005-04-06 07:55:37 51°11.857 2°47.172 239.5 13.3 238 11.6
2005-04-06 07:55:42 51°11.847 2°47.147 239.1 13.3 237 11.6
2005-04-06 07:55:46 51°11.838 2°47.125 239 13.3 237 11.6
2005-04-06 07:55:51 51°11.829 2°47.103 238.8 13.3 237 11.6
2005-04-06 07:55:56 51°11.818 2°47.076 238.8 13.3 237 11.5
2005-04-06 07:56:01 51°11.808 2°47.051 238.7 13.4 237 11.5
2005-04-06 07:56:07 51°11.797 2°47.023 238.7 13.4 238 11.4
2005-04-06 07:56:12 51°11.787 2°46.995 239.1 13.4 238 11.5
2005-04-06 07:56:17 51°11.779 2°46.972 240.2 13.4 241 11.4
2005-04-06 07:56:21 51°11.771 2°46.948 242.3 13.4 241 11.5
2005-04-06 07:56:27 51°11.762 2°46.92 243.8 13.3 243 11.5
2005-04-06 07:56:31 51°11.754 2°46.895 244.3 13.4 243 11.5
2005-04-06 07:56:36 51°11.747 2°46.872 244.8 13.4 243 11.5
2005-04-06 07:56:41 51°11.738 2°46.843 245.5 13.3 244 11.4
2005-04-06 07:56:47 51°11.729 2°46.814 245.8 13.3 244 11.5
2005-04-06 07:56:51 51°11.722 2°46.79 245.7 13.3 245 11.5
2005-04-06 07:56:57 51°11.713 2°46.761 245.9 13.3 245 11.4
2005-04-06 07:57:02 51°11.705 2°46.735 245.7 13.3 245 11.5
2005-04-06 07:57:07 51°11.697 2°46.709 245.5 13.3 245 11.5
2005-04-06 07:57:12 51°11.689 2°46.682 245.3 13.3 243 11.6
2005-04-06 07:57:16 51°11.682 2°46.658 245.6 13.3 244 11.5
2005-04-06 07:57:21 51°11.674 2°46.632 245.7 13.3 244 11.5
2005-04-06 07:57:27 51°11.665 2°46.602 245.8 13.3 245 11.6
2005-04-06 07:57:31 51°11.658 2°46.578 246 13.3 245 11.6
2005-04-06 07:57:37 51°11.65 2°46.55 246 13.2 244 11.6
2005-04-06 07:57:41 51°11.643 2°46.528 246 13.3 245 11.7
2005-04-06 07:57:45 51°11.636 2°46.505 246 13.3 244 11.7
2005-04-06 07:57:51 51°11.628 2°46.476 246 13.3 245 11.6
2005-04-06 07:57:57 51°11.618 2°46.444 246 13.3 244 11.7
2005-04-06 07:58:01 51°11.611 2°46.42 246 13.3 244 11.7
2005-04-06 07:58:07 51°11.602 2°46.391 245.8 13.3 244 11.7
2005-04-06 07:58:11 51°11.596 2°46.37 245.8 13.3 244 11.7
2005-04-06 07:58:16 51°11.587 2°46.341 245.8 13.2 244 11.7
2005-04-06 07:58:21 51°11.579 2°46.314 245.7 13.3 244 11.7
2005-04-06 07:58:26 51°11.571 2°46.288 245.7 13.3 244 11.7
2005-04-06 07:58:30 51°11.564 2°46.267 245.6 13.3 244 11.7
2005-04-06 07:58:37 51°11.554 2°46.233 245.5 13.2 244 11.7
2005-04-06 07:58:41 51°11.546 2°46.21 245.4 13.2 244 11.7
2005-04-06 07:58:47 51°11.537 2°46.181 245.2 13.3 243 11.7
2005-04-06 07:58:52 51°11.529 2°46.155 245.1 13.2 243 11.6
2005-04-06 07:58:57 51°11.521 2°46.129 244.8 13.2 243 11.6
2005-04-06 07:59:01 51°11.513 2°46.105 244.7 13.2 243 11.6
2005-04-06 07:59:06 51°11.505 2°46.079 245.1 13.2 244 11.6
2005-04-06 07:59:11 51°11.498 2°46.056 245.3 13.2 244 11.6
2005-04-06 07:59:16 51°11.489 2°46.027 245.3 13.2 244 11.5
2005-04-06 07:59:21 51°11.481 2°46.001 245.5 13.2 244 11.5
2005-04-06 07:59:25 51°11.475 2°45.98 245.6 13.2 244 11.6
2005-04-06 07:59:31 51°11.465 2°45.948 245.6 13.2 244 11.6
2005-04-06 07:59:37 51°11.456 2°45.92 245.6 13.2 244 11.5
2005-04-06 07:59:41 51°11.449 2°45.896 245.6 13.2 244 11.4
2005-04-06 07:59:46 51°11.441 2°45.87 245.6 13.2 244 11.4
2005-04-06 07:59:52 51°11.432 2°45.839 245.6 13.2 244 11.5
2005-04-06 07:59:57 51°11.424 2°45.816 245.5 13.2 244 11.5
2005-04-06 08:00:01 51°11.417 2°45.792 245.4 13.1 244 11.5
2005-04-06 08:00:07 51°11.408 2°45.764 245.3 13.1 243 11.4
2005-04-06 08:00:11 51°11.401 2°45.74 245.2 13.1 244 11.5
2005-04-06 08:00:17 51°11.392 2°45.712 245 13.1 243 11.4
2005-04-06 08:00:21 51°11.385 2°45.689 244.9 13.1 243 11.4
2005-04-06 08:00:27 51°11.376 2°45.661 244.9 13.1 243 11.4
2005-04-06 08:00:31 51°11.368 2°45.637 244.9 13.1 243 11.4
2005-04-06 08:00:37 51°11.359 2°45.609 244.9 13.1 244 11.5
2005-04-06 08:00:41 51°11.352 2°45.586 245.1 13.1 244 11.4
2005-04-06 08:00:47 51°11.343 2°45.557 245.3 13.1 244 11.3
2005-04-06 08:00:51 51°11.337 2°45.536 245.4 13.1 244 11.3
2005-04-06 08:00:57 51°11.328 2°45.505 245.4 13.1 244 11.3
2005-04-06 08:01:01 51°11.32 2°45.482 245.7 13.1 244 11.3
2005-04-06 08:01:07 51°11.312 2°45.453 245.7 13.1 244 11.3
2005-04-06 08:01:11 51°11.305 2°45.432 245.6 13.1 244 11.3
2005-04-06 08:01:17 51°11.296 2°45.401 245.7 13.1 244 11.3
2005-04-06 08:01:21 51°11.289 2°45.378 245.8 13.1 244 11.3
2005-04-06 08:01:27 51°11.28 2°45.349 245.9 13.1 244 11.3
2005-04-06 08:01:31 51°11.274 2°45.328 245.9 13.1 244 11.2
2005-04-06 08:01:36 51°11.265 2°45.3 245.9 13 244 11.2
2005-04-06 08:01:41 51°11.257 2°45.274 245.3 13 244 11.2
2005-04-06 08:01:45 51°11.251 2°45.254 245.1 13 244 11.2
2005-04-06 08:01:50 51°11.243 2°45.228 245.1 13 244 11.2
2005-04-06 08:01:57 51°11.232 2°45.194 245.2 13 244 11.2
2005-04-06 08:02:01 51°11.225 2°45.171 245.3 13 244 11.1
2005-04-06 08:02:06 51°11.217 2°45.145 245.4 13 244 11.1
2005-04-06 08:02:12 51°11.209 2°45.116 245.5 13 244 11.1
2005-04-06 08:02:17 51°11.201 2°45.091 245.7 13 244 11.1
2005-04-06 08:02:22 51°11.193 2°45.065 245.5 13.1 244 11.1
2005-04-06 08:02:25 51°11.187 2°45.047 245.3 13 244 11.1
2005-04-06 08:02:31 51°11.177 2°45.016 245.1 13.1 243 11.1
2005-04-06 08:02:37 51°11.169 2°44.988 244.8 13.1 244 11
2005-04-06 08:02:42 51°11.161 2°44.962 245.2 13.1 244 11.1
2005-04-06 08:02:47 51°11.153 2°44.936 245.4 13 244 11
2005-04-06 08:02:51 51°11.147 2°44.915 245.6 13.1 244 11
2005-04-06 08:02:56 51°11.138 2°44.887 245.8 13 244 11
2005-04-06 08:03:01 51°11.13 2°44.861 245.5 13 244 11
2005-04-06 08:03:07 51°11.121 2°44.832 245.2 13 244 11
2005-04-06 08:03:11 51°11.114 2°44.812 245.3 13 244 11
2005-04-06 08:03:17 51°11.105 2°44.781 245.3 13 244 10.9
2005-04-06 08:03:21 51°11.097 2°44.758 245.3 13.1 243 11
2005-04-06 08:03:27 51°11.089 2°44.73 245.3 13.1 243 11
2005-04-06 08:03:31 51°11.082 2°44.709 245.6 13 243 10.9
2005-04-06 08:03:37 51°11.073 2°44.678 245.3 13 244 10.9
2005-04-06 08:03:41 51°11.066 2°44.655 245.1 13 243 10.9
2005-04-06 08:03:47 51°11.057 2°44.626 244.9 13 243 10.9
2005-04-06 08:03:51 51°11.051 2°44.605 246.6 13 246 10.8
2005-04-06 08:03:57 51°11.043 2°44.574 247.4 13 246 10.9
2005-04-06 08:04:01 51°11.037 2°44.55 248.5 13 247 10.9
2005-04-06 08:04:05 51°11.032 2°44.531 248.9 13 247 10.8
2005-04-06 08:04:11 51°11.022 2°44.496 249 13 248 10.9
2005-04-06 08:04:17 51°11.015 2°44.467 249 13 247 10.8
2005-04-06 08:04:21 51°11.009 2°44.444 249 13 247 10.9
2005-04-06 08:04:27 51°11.001 2°44.414 249 13 247 10.9
2005-04-06 08:04:31 51°10.995 2°44.39 249.6 13 248 10.9
2005-04-06 08:04:37 51°10.988 2°44.361 249.7 13 248 10.9
2005-04-06 08:04:41 51°10.982 2°44.337 250 13 248 10.9
2005-04-06 08:04:47 51°10.974 2°44.307 250 13 248 10.8
2005-04-06 08:04:52 51°10.968 2°44.281 249.8 13 248 10.8
2005-04-06 08:04:56 51°10.961 2°44.257 249.6 13 247 10.8
2005-04-06 08:05:01 51°10.954 2°44.231 249.2 13 247 10.8
2005-04-06 08:05:07 51°10.947 2°44.201 249.3 13 247 10.8
2005-04-06 08:05:11 51°10.941 2°44.18 249.8 13 248 10.8
2005-04-06 08:05:17 51°10.934 2°44.148 249.9 13 248 10.8
2005-04-06 08:05:22 51°10.927 2°44.121 250.1 13 248 10.8
2005-04-06 08:05:25 51°10.923 2°44.105 250.1 13 248 10.8
2005-04-06 08:05:31 51°10.914 2°44.073 249.7 13 248 10.8
2005-04-06 08:05:37 51°10.906 2°44.041 249.2 13 247 10.8
2005-04-06 08:05:41 51°10.9 2°44.017 249.3 13 248 10.8
2005-04-06 08:05:47 51°10.893 2°43.988 249.6 13 248 10.8
2005-04-06 08:05:50 51°10.888 2°43.972 249.4 13 248 10.7
2005-04-06 08:05:57 51°10.879 2°43.935 249.5 13 248 10.8
2005-04-06 08:06:01 51°10.873 2°43.912 249.5 13 248 10.8
2005-04-06 08:06:06 51°10.866 2°43.885 249.5 13 248 10.8
2005-04-06 08:06:11 51°10.86 2°43.861 249.3 13 247 10.8
2005-04-06 08:06:17 51°10.851 2°43.83 249.2 13 247 10.8
2005-04-06 08:06:22 51°10.844 2°43.803 249.2 13 247 10.8
2005-04-06 08:06:27 51°10.837 2°43.777 249.1 13 247 10.7
2005-04-06 08:06:31 51°10.832 2°43.756 249.1 13 247 10.8
2005-04-06 08:06:36 51°10.824 2°43.727 249.1 13 247 10.8
2005-04-06 08:06:42 51°10.817 2°43.698 249.1 13 247 10.7
2005-04-06 08:06:47 51°10.81 2°43.672 249 12.9 247 10.7
2005-04-06 08:06:51 51°10.804 2°43.651 249 13 247 10.7
2005-04-06 08:06:57 51°10.796 2°43.619 249 13 247 10.7
2005-04-06 08:07:02 51°10.789 2°43.593 249.2 13 247 10.7
2005-04-06 08:07:07 51°10.782 2°43.567 249.1 12.9 247 10.7
2005-04-06 08:07:12 51°10.775 2°43.54 249 12.9 247 10.7
2005-04-06 08:07:16 51°10.769 2°43.517 249 12.9 247 10.7
2005-04-06 08:07:21 51°10.762 2°43.49 249 12.9 247 10.7
2005-04-06 08:07:26 51°10.755 2°43.464 249 12.9 247 10.7
2005-04-06 08:07:31 51°10.748 2°43.437 248.9 12.9 248 10.7
2005-04-06 08:07:37 51°10.741 2°43.409 249.3 12.9 248 10.7
2005-04-06 08:07:41 51°10.735 2°43.388 249.6 12.9 248 10.7
2005-04-06 08:07:46 51°10.728 2°43.359 249.6 12.9 248 10.6
2005-04-06 08:07:51 51°10.722 2°43.335 249.5 12.8 248 10.7
2005-04-06 08:07:56 51°10.714 2°43.307 249.2 12.8 247 10.7
2005-04-06 08:08:01 51°10.707 2°43.281 249.1 12.8 247 10.7
2005-04-06 08:08:07 51°10.7 2°43.252 249 12.8 248 10.7
2005-04-06 08:08:11 51°10.694 2°43.231 249.3 12.8 248 10.6
2005-04-06 08:08:17 51°10.686 2°43.2 249.6 12.8 248 10.6
2005-04-06 08:08:21 51°10.68 2°43.176 249.6 12.8 248 10.6
2005-04-06 08:08:27 51°10.673 2°43.147 249.5 12.8 248 10.6
2005-04-06 08:08:31 51°10.667 2°43.127 249.5 12.8 248 10.6
2005-04-06 08:08:37 51°10.659 2°43.095 249.4 12.8 247 10.6
2005-04-06 08:08:41 51°10.653 2°43.072 249.3 12.8 247 10.6
2005-04-06 08:08:45 51°10.647 2°43.051 249.2 12.8 248 10.6
2005-04-06 08:08:51 51°10.639 2°43.019 249.3 12.8 248 10.6
2005-04-06 08:08:56 51°10.633 2°42.993 249.6 12.8 248 10.6
2005-04-06 08:09:01 51°10.626 2°42.967 249.6 12.8 248 10.6
2005-04-06 08:09:06 51°10.619 2°42.941 249.5 12.8 248 10.6
2005-04-06 08:09:12 51°10.612 2°42.912 249.5 12.8 247 10.6
2005-04-06 08:09:17 51°10.605 2°42.886 249.5 12.8 247 10.5
2005-04-06 08:09:21 51°10.599 2°42.863 250 12.8 248 10.6
2005-04-06 08:09:26 51°10.593 2°42.839 249.7 12.7 248 10.6
2005-04-06 08:09:31 51°10.586 2°42.813 249.4 12.8 247 10.5
2005-04-06 08:09:37 51°10.578 2°42.782 249.4 12.8 248 10.5
2005-04-06 08:09:41 51°10.572 2°42.758 249.2 12.8 247 10.6
2005-04-06 08:09:46 51°10.565 2°42.732 249.3 12.8 247 10.5
2005-04-06 08:09:52 51°10.557 2°42.704 249.4 12.8 247 10.5
2005-04-06 08:09:56 51°10.551 2°42.681 249.3 12.8 247 10.6
2005-04-06 08:10:02 51°10.544 2°42.652 249.2 12.8 247 10.5
2005-04-06 08:10:06 51°10.537 2°42.629 249.1 12.8 247 10.5
2005-04-06 08:10:11 51°10.531 2°42.606 249.2 12.8 247 10.5
2005-04-06 08:10:16 51°10.524 2°42.577 249.3 12.7 247 10.5
2005-04-06 08:10:22 51°10.517 2°42.548 249.4 12.7 248 10.5
2005-04-06 08:10:27 51°10.51 2°42.522 249.5 12.7 248 10.5
2005-04-06 08:10:32 51°10.502 2°42.494 249.6 12.7 248 10.5
2005-04-06 08:10:35 51°10.499 2°42.481 249.6 12.7 247 10.5
2005-04-06 08:10:42 51°10.49 2°42.444 249.6 12.7 247 10.5
2005-04-06 08:10:47 51°10.483 2°42.419 249.6 12.7 247 10.5
2005-04-06 08:10:50 51°10.478 2°42.401 249.6 12.7 248 10.5
2005-04-06 08:10:57 51°10.47 2°42.367 249.6 12.7 247 10.5
2005-04-06 08:11:01 51°10.463 2°42.344 249.5 12.7 247 10.5
2005-04-06 08:11:07 51°10.456 2°42.316 249.4 12.7 247 10.5
2005-04-06 08:11:11 51°10.449 2°42.292 249.2 12.7 247 10.5
2005-04-06 08:11:16 51°10.443 2°42.267 249 12.7 247 10.6
2005-04-06 08:11:22 51°10.435 2°42.238 248.9 12.7 247 10.5
2005-04-06 08:11:27 51°10.428 2°42.213 248.9 12.7 246 10.5
2005-04-06 08:11:32 51°10.421 2°42.187 248.9 12.7 247 10.5
2005-04-06 08:11:37 51°10.414 2°42.161 248.8 12.6 247 10.6
2005-04-06 08:11:42 51°10.407 2°42.133 248.8 12.7 247 10.6
2005-04-06 08:11:46 51°10.402 2°42.115 249.2 12.7 247 10.6
2005-04-06 08:11:51 51°10.395 2°42.089 249.6 12.6 248 10.6
2005-04-06 08:11:57 51°10.387 2°42.059 249.6 12.6 247 10.6
2005-04-06 08:12:02 51°10.38 2°42.033 249.2 12.6 247 10.6
2005-04-06 08:12:07 51°10.374 2°42.007 249.4 12.6 247 10.6
2005-04-06 08:12:09 51°10.37 2°41.994 249.4 12.6 247 10.6
2005-04-06 08:12:17 51°10.36 2°41.956 249.4 12.6 247 10.6
2005-04-06 08:12:21 51°10.354 2°41.933 249.4 12.6 247 10.6
2005-04-06 08:12:27 51°10.347 2°41.904 249.4 12.6 247 10.6
2005-04-06 08:12:31 51°10.341 2°41.884 249.4 12.6 248 10.6
2005-04-06 08:12:35 51°10.336 2°41.863 249.5 12.6 248 10.6
2005-04-06 08:12:42 51°10.327 2°41.827 249.6 12.6 248 10.6
2005-04-06 08:12:45 51°10.322 2°41.809 249.3 12.6 247 10.7
2005-04-06 08:12:50 51°10.315 2°41.783 249.2 12.6 248 10.6
2005-04-06 08:12:56 51°10.307 2°41.752 249.4 12.6 248 10.7
2005-04-06 08:13:01 51°10.301 2°41.726 249.8 12.6 248 10.6
2005-04-06 08:13:07 51°10.293 2°41.698 250 12.6 248 10.6
2005-04-06 08:13:11 51°10.287 2°41.674 250 12.6 248 10.7
2005-04-06 08:13:16 51°10.281 2°41.649 250 12.6 248 10.6
2005-04-06 08:13:21 51°10.274 2°41.623 249.8 12.6 248 10.7
2005-04-06 08:13:25 51°10.269 2°41.603 249.7 12.6 247 10.7
2005-04-06 08:13:32 51°10.26 2°41.569 249.5 12.6 247 10.7
2005-04-06 08:13:36 51°10.254 2°41.546 249.2 12.6 248 10.7
2005-04-06 08:13:42 51°10.247 2°41.518 249.4 12.6 248 10.7
2005-04-06 08:13:47 51°10.241 2°41.492 249.7 12.6 248 10.7
2005-04-06 08:13:51 51°10.235 2°41.469 250 12.6 248 10.7
2005-04-06 08:13:57 51°10.227 2°41.438 249.9 12.6 248 10.7
2005-04-06 08:14:01 51°10.222 2°41.418 249.9 12.5 247 10.7
2005-04-06 08:14:06 51°10.215 2°41.392 249.7 12.6 248 10.7
2005-04-06 08:14:11 51°10.209 2°41.369 249.6 12.6 247 10.7
2005-04-06 08:14:17 51°10.201 2°41.339 249.2 12.6 247 10.8
2005-04-06 08:14:21 51°10.195 2°41.315 249 12.6 247 10.8
2005-04-06 08:14:25 51°10.189 2°41.295 248.8 12.6 247 10.8
2005-04-06 08:14:31 51°10.182 2°41.267 249 12.6 248 10.8
2005-04-06 08:14:36 51°10.175 2°41.239 249.3 12.6 247 10.8
2005-04-06 08:14:42 51°10.167 2°41.208 249.6 12.6 248 10.8
2005-04-06 08:14:47 51°10.161 2°41.185 249.6 12.6 248 10.8
2005-04-06 08:14:51 51°10.155 2°41.164 249.7 12.6 248 10.8
2005-04-06 08:14:56 51°10.148 2°41.135 249.8 12.6 248 10.9
2005-04-06 08:15:01 51°10.142 2°41.11 249.8 12.6 248 10.8
2005-04-06 08:15:05 51°10.137 2°41.089 249.8 12.6 248 10.8
2005-04-06 08:15:12 51°10.127 2°41.053 249.6 12.6 248 10.9
2005-04-06 08:15:17 51°10.121 2°41.03 249.6 12.6 247 10.9
2005-04-06 08:15:22 51°10.114 2°41.005 249.4 12.6 247 10.9
2005-04-06 08:15:25 51°10.11 2°40.987 249.3 12.6 247 10.9
2005-04-06 08:15:31 51°10.101 2°40.956 249.1 12.6 247 10.9
2005-04-06 08:15:37 51°10.094 2°40.928 249 12.6 247 10.9
2005-04-06 08:15:41 51°10.088 2°40.905 248.8 12.6 247 10.9
2005-04-06 08:15:46 51°10.081 2°40.88 248.9 12.6 247 10.9
2005-04-06 08:15:52 51°10.073 2°40.849 249.4 12.6 247 10.9
2005-04-06 08:15:57 51°10.067 2°40.826 249.4 12.6 247 10.9
2005-04-06 08:16:01 51°10.061 2°40.803 249.6 12.6 248 10.9
2005-04-06 08:16:06 51°10.055 2°40.777 249.8 12.6 248 11
2005-04-06 08:16:12 51°10.046 2°40.746 249.9 12.6 248 10.9
2005-04-06 08:16:17 51°10.04 2°40.72 249.6 12.6 248 11
2005-04-06 08:16:21 51°10.034 2°40.7 249.1 12.6 247 11
2005-04-06 08:16:26 51°10.027 2°40.675 249.1 12.6 247 11
2005-04-06 08:16:31 51°10.02 2°40.649 248.9 12.6 247 11
2005-04-06 08:16:37 51°10.013 2°40.621 248.9 12.6 247 11
2005-04-06 08:16:41 51°10.007 2°40.598 248.9 12.6 247 11.1
2005-04-06 08:16:46 51°10 2°40.572 249.3 12.6 247 11
2005-04-06 08:16:52 51°9.993 2°40.544 249.6 12.6 247 11.1
2005-04-06 08:16:56 51°9.987 2°40.521 249.7 12.6 247 11
2005-04-06 08:17:01 51°9.98 2°40.496 249.4 12.6 247 11.1
2005-04-06 08:17:05 51°9.975 2°40.478 248.7 12.6 246 11.1
2005-04-06 08:17:12 51°9.965 2°40.442 248.7 12.6 247 11.1
2005-04-06 08:17:17 51°9.959 2°40.416 248.9 12.6 247 11.1
2005-04-06 08:17:22 51°9.952 2°40.391 249.2 12.6 247 11.1
2005-04-06 08:17:27 51°9.945 2°40.365 249.7 12.6 247 11.1
2005-04-06 08:17:30 51°9.94 2°40.347 249.5 12.6 247 11.1
2005-04-06 08:17:36 51°9.932 2°40.317 248.9 12.5 246 11.1
2005-04-06 08:17:41 51°9.925 2°40.292 248.4 12.5 246 11.2
2005-04-06 08:17:47 51°9.917 2°40.264 248.5 12.6 246 11.1
2005-04-06 08:17:51 51°9.912 2°40.243 248.8 12.6 247 11.1
2005-04-06 08:17:56 51°9.904 2°40.215 249.3 12.5 247 11.1
2005-04-06 08:18:01 51°9.898 2°40.193 249.3 12.5 247 11.2
2005-04-06 08:18:07 51°9.89 2°40.162 249.2 12.5 247 11.1
2005-04-06 08:18:11 51°9.884 2°40.142 248.9 12.6 246 11.1
2005-04-06 08:18:16 51°9.877 2°40.114 248.6 12.6 246 11.2
2005-04-06 08:18:22 51°9.869 2°40.086 248.9 12.6 246 11.2
2005-04-06 08:18:27 51°9.862 2°40.06 249 12.6 246 11.2
2005-04-06 08:18:30 51°9.858 2°40.043 249.4 12.5 247 11.2
2005-04-06 08:18:37 51°9.849 2°40.009 249.8 12.5 248 11.2
2005-04-06 08:18:41 51°9.844 2°39.989 249.9 12.5 247 11.2
2005-04-06 08:18:45 51°9.838 2°39.966 249.9 12.5 247 11.2
2005-04-06 08:18:51 51°9.83 2°39.938 249.6 12.5 247 11.2
2005-04-06 08:18:57 51°9.822 2°39.908 249.5 12.4 247 11.2
2005-04-06 08:19:01 51°9.816 2°39.885 249.2 12.5 246 11.1
2005-04-06 08:19:05 51°9.81 2°39.865 248.9 12.5 247 11.2
2005-04-06 08:19:12 51°9.802 2°39.832 249.3 12.4 247 11.2
2005-04-06 08:19:16 51°9.796 2°39.809 249.3 12.5 248 11.2
2005-04-06 08:19:22 51°9.788 2°39.781 249.5 12.5 248 11.2
2005-04-06 08:19:27 51°9.782 2°39.756 249.5 12.5 248 11.2
2005-04-06 08:19:31 51°9.776 2°39.733 249.7 12.4 248 11.2
2005-04-06 08:19:37 51°9.768 2°39.706 249.7 12.4 247 11.2
2005-04-06 08:19:41 51°9.762 2°39.683 249.7 12.4 247 11.2
2005-04-06 08:19:46 51°9.756 2°39.658 249.4 12.4 247 11.2
2005-04-06 08:19:51 51°9.749 2°39.636 249.2 12.4 247 11.1
2005-04-06 08:19:56 51°9.742 2°39.608 249.1 12.4 246 11.3
2005-04-06 08:20:01 51°9.735 2°39.583 248.9 12.4 246 11.3
2005-04-06 08:20:06 51°9.729 2°39.56 248.8 12.4 246 11.3
2005-04-06 08:20:11 51°9.722 2°39.535 248.7 12.4 246 11.3
2005-04-06 08:20:17 51°9.713 2°39.506 248.9 12.4 247 11.3
2005-04-06 08:20:22 51°9.706 2°39.48 249 12.4 247 11.3
2005-04-06 08:20:26 51°9.7 2°39.458 249.4 12.4 247 11.3
2005-04-06 08:20:32 51°9.692 2°39.427 249.5 12.4 247 11.3
2005-04-06 08:20:37 51°9.686 2°39.405 249.5 12.4 247 11.3
2005-04-06 08:20:41 51°9.68 2°39.382 249.7 12.4 247 11.3
2005-04-06 08:20:47 51°9.672 2°39.354 249.7 12.4 247 11.3
2005-04-06 08:20:51 51°9.666 2°39.331 249.7 12.4 247 11.4
2005-04-06 08:20:57 51°9.659 2°39.304 250.1 12.4 247 11.3
2005-04-06 08:21:02 51°9.653 2°39.279 250.1 12.4 248 11.4
2005-04-06 08:21:07 51°9.646 2°39.254 250.2 12.3 246 11.3
2005-04-06 08:21:10 51°9.641 2°39.237 249.7 12.3 246 11.3
2005-04-06 08:21:17 51°9.632 2°39.204 249.2 12.4 246 11.4
2005-04-06 08:21:21 51°9.625 2°39.182 249 12.4 246 11.4
2005-04-06 08:21:27 51°9.618 2°39.154 248.8 12.4 246 11.5
2005-04-06 08:21:31 51°9.611 2°39.131 249 12.4 246 11.4
2005-04-06 08:21:37 51°9.604 2°39.104 249.4 12.4 246 11.4
2005-04-06 08:21:41 51°9.598 2°39.081 249.6 12.4 247 11.5
2005-04-06 08:21:47 51°9.59 2°39.054 249.7 12.4 247 11.5
2005-04-06 08:21:51 51°9.584 2°39.031 249.7 12.4 246 11.5
2005-04-06 08:21:57 51°9.577 2°39.004 249.5 12.4 246 11.5
2005-04-06 08:22:01 51°9.571 2°38.981 249.5 12.4 247 11.5
2005-04-06 08:22:07 51°9.563 2°38.954 249.8 12.4 247 11.5
2005-04-06 08:22:12 51°9.556 2°38.928 249.7 12.4 247 11.6
2005-04-06 08:22:16 51°9.55 2°38.906 249.3 12.4 246 11.5
2005-04-06 08:22:21 51°9.543 2°38.881 249 12.3 246 11.5
2005-04-06 08:22:27 51°9.536 2°38.854 249 12.3 246 11.5
2005-04-06 08:22:31 51°9.53 2°38.834 249.5 12.4 247 11.6
2005-04-06 08:22:36 51°9.523 2°38.806 249.7 12.3 247 11.5
2005-04-06 08:22:42 51°9.516 2°38.778 249.7 12.3 247 11.6
2005-04-06 08:22:46 51°9.51 2°38.759 249.8 12.3 247 11.6
2005-04-06 08:22:50 51°9.504 2°38.736 249.5 12.3 247 11.6
2005-04-06 08:22:57 51°9.495 2°38.704 249 12.3 246 11.6
2005-04-06 08:23:01 51°9.489 2°38.682 248.9 12.2 246 11.6
2005-04-06 08:23:07 51°9.481 2°38.654 248.9 12.2 245 11.6
2005-04-06 08:23:10 51°9.477 2°38.639 248.7 12.2 245 11.6
2005-04-06 08:23:17 51°9.466 2°38.603 248.6 12.3 246 11.6
2005-04-06 08:23:21 51°9.461 2°38.583 248.5 12.3 246 11.6
2005-04-06 08:23:27 51°9.453 2°38.556 248.5 12.3 246 11.6
2005-04-06 08:23:32 51°9.446 2°38.531 248.5 12.3 246 11.6
2005-04-06 08:23:37 51°9.439 2°38.506 248.6 12.3 246 11.7
2005-04-06 08:23:41 51°9.433 2°38.486 248.6 12.2 246 11.7
2005-04-06 08:23:46 51°9.426 2°38.459 248.7 12.3 246 11.7
2005-04-06 08:23:51 51°9.42 2°38.437 248.8 12.2 246 11.7
2005-04-06 08:23:57 51°9.411 2°38.407 248.9 12.2 246 11.7
2005-04-06 08:24:01 51°9.406 2°38.387 248.9 12.2 246 11.7
2005-04-06 08:24:07 51°9.398 2°38.358 249 12.2 246 11.6
2005-04-06 08:24:11 51°9.392 2°38.336 249.4 12.2 247 11.7
2005-04-06 08:24:17 51°9.384 2°38.309 249.4 12.2 247 11.7
2005-04-06 08:24:21 51°9.378 2°38.287 249.5 12.3 247 11.7
2005-04-06 08:24:27 51°9.371 2°38.26 249.6 12.2 246 11.7
2005-04-06 08:24:31 51°9.365 2°38.24 249.4 12.3 247 11.7
2005-04-06 08:24:37 51°9.357 2°38.21 249.4 12.3 246 11.7
2005-04-06 08:24:41 51°9.351 2°38.188 249.4 12.3 246 11.6
2005-04-06 08:24:46 51°9.344 2°38.163 249.2 12.3 246 11.7
2005-04-06 08:24:52 51°9.336 2°38.136 249.3 12.3 246 11.7
2005-04-06 08:24:57 51°9.33 2°38.112 249.6 12.3 246 11.7
2005-04-06 08:25:01 51°9.325 2°38.091 250 11.4 250 11.6
2005-04-06 08:25:07 51°9.319 2°38.066 251.2 11.4 250 11.7
2005-04-06 08:25:11 51°9.315 2°38.048 252.2 10.7 250 11.7
2005-04-06 08:25:17 51°9.31 2°38.023 253 10.7 250 11.8
2005-04-06 08:25:21 51°9.306 2°38.004 253.3 10 251 11.8
2005-04-06 08:25:27 51°9.301 2°37.982 253.5 9.7 251 11.8
2005-04-06 08:25:31 51°9.297 2°37.965 253.4 8.9 250 11.8
2005-04-06 08:25:37 51°9.293 2°37.946 252.1 8.9 250 11.8
2005-04-06 08:25:41 51°9.288 2°37.932 250.2 8.1 246 11.8
2005-04-06 08:25:47 51°9.283 2°37.916 248 7.8 244 11.8
2005-04-06 08:25:51 51°9.278 2°37.903 245.3 7.4 240 11.8
2005-04-06 08:25:57 51°9.273 2°37.89 242.5 7.4 240 11.8
2005-04-06 08:26:02 51°9.267 2°37.877 240.8 6.9 236 11.7
2005-04-06 08:26:07 51°9.262 2°37.865 239.9 6.6 237 11.9
2005-04-06 08:26:11 51°9.258 2°37.856 240.1 6.5 237 11.8
2005-04-06 08:26:16 51°9.253 2°37.843 240.7 6.3 238 11.9
2005-04-06 08:26:22 51°9.249 2°37.83 241.7 6.3 238 11.8
2005-04-06 08:26:25 51°9.246 2°37.822 243 6 241 11.8
2005-04-06 08:26:31 51°9.241 2°37.809 244.1 5.9 241 11.8
2005-04-06 08:26:37 51°9.237 2°37.797 244.4 5.9 241 11.7
2005-04-06 08:26:42 51°9.233 2°37.786 244 5.7 240 11.8
2005-04-06 08:26:47 51°9.228 2°37.776 243.1 5.6 238 11.8
2005-04-06 08:26:51 51°9.225 2°37.768 241.6 5.5 235 11.8
2005-04-06 08:26:57 51°9.22 2°37.756 240.2 5.5 235 11.8
2005-04-06 08:27:02 51°9.216 2°37.746 239.1 5.4 234 11.7
2005-04-06 08:27:07 51°9.211 2°37.737 238.2 5.3 233 11.7
2005-04-06 08:27:12 51°9.207 2°37.728 237.7 5.3 233 11.7
2005-04-06 08:27:17 51°9.203 2°37.719 237.4 5.3 233 11.7
2005-04-06 08:27:21 51°9.199 2°37.71 237 5.3 233 11.7
2005-04-06 08:27:26 51°9.194 2°37.702 236.8 5.2 232 11.7
2005-04-06 08:27:31 51°9.19 2°37.694 236.6 5.2 232 11.7
2005-04-06 08:27:37 51°9.185 2°37.683 237.1 5.1 234 11.7
2005-04-06 08:27:41 51°9.181 2°37.674 237.8 5.3 234 11.7
2005-04-06 08:27:46 51°9.177 2°37.664 239 5.4 236 11.7
2005-04-06 08:27:52 51°9.173 2°37.653 240.2 5.4 236 11.6
2005-04-06 08:27:57 51°9.169 2°37.642 241.5 5.6 239 11.6
2005-04-06 08:28:01 51°9.165 2°37.632 242.9 5.6 240 11.6
2005-04-06 08:28:06 51°9.162 2°37.622 244.4 5.7 242 11.6
2005-04-06 08:28:11 51°9.158 2°37.609 246 5.7 244 11.6
2005-04-06 08:28:17 51°9.155 2°37.596 248.1 5.8 247 11.5
2005-04-06 08:28:21 51°9.152 2°37.585 250.1 6 249 11.6
2005-04-06 08:28:27 51°9.149 2°37.571 251.1 6 248 11.5
2005-04-06 08:28:32 51°9.145 2°37.557 251.1 6.1 249 11.6
2005-04-06 08:28:37 51°9.142 2°37.545 250.6 6.1 249 11.5
2005-04-06 08:28:42 51°9.139 2°37.532 250.4 6.3 248 11.5
2005-04-06 08:28:46 51°9.136 2°37.52 250.4 6.3 248 11.5
2005-04-06 08:28:51 51°9.133 2°37.508 250.8 6.4 248 11.5
2005-04-06 08:28:57 51°9.129 2°37.491 251 6.5 249 11.5
2005-04-06 08:29:02 51°9.126 2°37.479 251.3 6.6 250 11.5
2005-04-06 08:29:07 51°9.123 2°37.465 251.8 6.6 250 11.5
2005-04-06 08:29:12 51°9.12 2°37.452 252.4 6.6 250 11.5
2005-04-06 08:29:17 51°9.117 2°37.438 252.7 6.7 251 11.4
2005-04-06 08:29:22 51°9.114 2°37.424 253.2 6.7 252 11.5
2005-04-06 08:29:27 51°9.112 2°37.41 254.4 6.7 252 11.5
2005-04-06 08:29:31 51°9.11 2°37.397 256.3 6.7 257 11.4
2005-04-06 08:29:37 51°9.108 2°37.379 259.1 6.7 258 11.5
2005-04-06 08:29:42 51°9.106 2°37.366 260.4 6.7 260 11.5
2005-04-06 08:29:47 51°9.104 2°37.351 259.1 6.7 257 11.5
2005-04-06 08:29:51 51°9.102 2°37.338 258.3 6.8 258 11.4
2005-04-06 08:29:57 51°9.1 2°37.322 258.6 6.8 258 11.5
2005-04-06 08:30:02 51°9.099 2°37.307 259.5 6.8 259 11.5
2005-04-06 08:30:06 51°9.097 2°37.295 260.5 6.8 261 11.5
2005-04-06 08:30:11 51°9.096 2°37.281 262 6.8 261 11.4
2005-04-06 08:30:17 51°9.096 2°37.265 263.7 6.2 264 11.5
2005-04-06 08:30:22 51°9.095 2°37.251 265 6.2 264 11.5
2005-04-06 08:30:27 51°9.095 2°37.24 266.3 5.5 268 11.5
2005-04-06 08:30:31 51°9.095 2°37.231 267.8 5.5 268 11.6
2005-04-06 08:30:35 51°9.095 2°37.223 267.5 4.6 266 11.6
2005-04-06 08:30:42 51°9.093 2°37.21 264.5 4.3 263 11.6
2005-04-06 08:30:46 51°9.093 2°37.205 260.7 3.9 258 11.6
2005-04-06 08:30:51 51°9.091 2°37.197 256.8 3.9 258 11.5